Terminal Aerodrome Forecast
Issued by NWS

Home | Current Version | Previous Version | Text Only | Print | Product List | Glossary On
Versions: 1 2 3 4 5 6 7 8 9 10 11 12
000
FTUS46 KMTR 130500
TAFSJC
TAF
KSJC 130520Z 1306/1406 32010KT P6SM SCT012
     FM130900 VRB03KT P6SM OVC010
     FM131700 31003KT P6SM SCT012
     FM131900 31012KT P6SM SKC
     FM140400 31008KT P6SM SKC=

USA.gov is the U.S. government's official web portal to all federal, state and local government web resources and services.